La Marque, Texas
Current Conditions -  °F | °C
As of 12:52 AM on Friday 31 Oct 2014 (Local Time) from KGLS Reporting Station
Clear Clear  
Wind Chill: 69°   Ceiling: Unl
Heat Index: 69°   Visibility: 10mi
Dew Point: 58°   Wind: 3mph
Humidity: 68%   Direction: 30°NNE
Pressure: 30.09"   Gusts: NA
Location:  29.37°N, 94.97°W
Report Text: KGLS 310552Z AUTO 03003KT 10SM CLR 21/14 A3009 RMK AO2 SLP189 T02060144 10211 20194 402500194 50000
Loading
Personal Weather Stations






























Interactive Weather Map New forecast layout! Learn more

10-Day Weather Forecast

Advertisements
Track Severe Weather on mobile